sensor_id;sensor_type;location;lat;lon;timestamp;pressure;altitude;pressure_sealevel;temperature;humidity
3150;BME280;32503;47.748;8.960;2023-06-01T00:00:14;96891.47;;;19.16;46.21
3150;BME280;32503;47.748;8.960;2023-06-01T00:02:42;96888.34;;;19.17;46.08
3150;BME280;32503;47.748;8.960;2023-06-01T00:05:09;96886.72;;;19.20;45.85
3150;BME280;32503;47.748;8.960;2023-06-01T00:07:37;96889.09;;;19.18;46.02
3150;BME280;32503;47.748;8.960;2023-06-01T00:10:05;96893.78;;;19.21;45.99
3150;BME280;32503;47.748;8.960;2023-06-01T00:12:32;96888.69;;;19.19;45.70
3150;BME280;32503;47.748;8.960;2023-06-01T00:14:59;96887.53;;;19.20;45.75
3150;BME280;32503;47.748;8.960;2023-06-01T00:17:26;96886.00;;;19.16;46.12
3150;BME280;32503;47.748;8.960;2023-06-01T00:19:54;96885.28;;;19.11;46.16
3150;BME280;32503;47.748;8.960;2023-06-01T00:22:21;96889.59;;;19.09;46.39
3150;BME280;32503;47.748;8.960;2023-06-01T00:24:51;96888.47;;;19.06;46.49
3150;BME280;32503;47.748;8.960;2023-06-01T00:27:18;96890.47;;;19.02;46.63
3150;BME280;32503;47.748;8.960;2023-06-01T00:29:45;96882.31;;;18.95;46.80
3150;BME280;32503;47.748;8.960;2023-06-01T00:32:12;96883.97;;;18.89;46.93
3150;BME280;32503;47.748;8.960;2023-06-01T00:34:39;96889.91;;;18.80;47.48
3150;BME280;32503;47.748;8.960;2023-06-01T00:37:06;96886.03;;;18.74;47.51
3150;BME280;32503;47.748;8.960;2023-06-01T00:39:33;96881.47;;;18.64;48.10
3150;BME280;32503;47.748;8.960;2023-06-01T00:42:01;96885.50;;;18.52;48.47
3150;BME280;32503;47.748;8.960;2023-06-01T00:44:28;96894.13;;;18.50;48.49
3150;BME280;32503;47.748;8.960;2023-06-01T00:46:55;96887.16;;;18.42;48.88
3150;BME280;32503;47.748;8.960;2023-06-01T00:49:25;96887.56;;;18.37;48.59
3150;BME280;32503;47.748;8.960;2023-06-01T00:51:52;96887.63;;;18.33;48.81
3150;BME280;32503;47.748;8.960;2023-06-01T00:54:20;96879.84;;;18.32;48.91
3150;BME280;32503;47.748;8.960;2023-06-01T00:56:47;96886.81;;;18.36;49.10
3150;BME280;32503;47.748;8.960;2023-06-01T00:59:16;96880.25;;;18.27;49.29
3150;BME280;32503;47.748;8.960;2023-06-01T01:01:43;96885.31;;;18.32;49.21
3150;BME280;32503;47.748;8.960;2023-06-01T01:04:10;96888.41;;;18.34;49.21
3150;BME280;32503;47.748;8.960;2023-06-01T01:06:49;96886.84;;;18.33;49.35
3150;BME280;32503;47.748;8.960;2023-06-01T01:09:28;96888.00;;;18.35;49.13
3150;BME280;32503;47.748;8.960;2023-06-01T01:12:53;96886.84;;;18.33;49.61
3150;BME280;32503;47.748;8.960;2023-06-01T01:15:34;96876.00;;;18.22;49.44
3150;BME280;32503;47.748;8.960;2023-06-01T01:18:06;96892.31;;;18.33;49.35
3150;BME280;32503;47.748;8.960;2023-06-01T01:20:41;96888.47;;;18.27;49.78
3150;BME280;32503;47.748;8.960;2023-06-01T01:23:43;96895.56;;;18.21;50.08
3150;BME280;32503;47.748;8.960;2023-06-01T01:26:42;96893.25;;;18.15;50.29
3150;BME280;32503;47.748;8.960;2023-06-01T01:29:14;96896.03;;;18.08;50.22
3150;BME280;32503;47.748;8.960;2023-06-01T01:31:43;96889.47;;;17.98;50.63
3150;BME280;32503;47.748;8.960;2023-06-01T01:34:11;96892.25;;;17.95;50.71
3150;BME280;32503;47.748;8.960;2023-06-01T01:36:38;96890.28;;;17.95;50.67
3150;BME280;32503;47.748;8.960;2023-06-01T01:39:07;96891.41;;;17.98;50.48
3150;BME280;32503;47.748;8.960;2023-06-01T01:41:34;96878.63;;;17.88;50.58
3150;BME280;32503;47.748;8.960;2023-06-01T01:44:01;96886.38;;;17.93;50.39
3150;BME280;32503;47.748;8.960;2023-06-01T01:46:36;96888.00;;;17.87;50.60
3150;BME280;32503;47.748;8.960;2023-06-01T01:49:16;96884.50;;;17.83;51.21
3150;BME280;32503;47.748;8.960;2023-06-01T01:51:52;96875.94;;;17.73;51.06
3150;BME280;32503;47.748;8.960;2023-06-01T01:54:21;96884.50;;;17.83;51.12
3150;BME280;32503;47.748;8.960;2023-06-01T01:56:53;96884.13;;;17.77;51.35
3150;BME280;32503;47.748;8.960;2023-06-01T01:59:23;96887.66;;;17.77;51.49
3150;BME280;32503;47.748;8.960;2023-06-01T02:01:52;96889.66;;;17.66;51.98
3150;BME280;32503;47.748;8.960;2023-06-01T02:04:20;96877.22;;;17.58;51.96
3150;BME280;32503;47.748;8.960;2023-06-01T02:06:47;96882.34;;;17.49;52.24
3150;BME280;32503;47.748;8.960;2023-06-01T02:09:14;96883.50;;;17.51;51.94
3150;BME280;32503;47.748;8.960;2023-06-01T02:11:41;96880.41;;;17.49;52.40
3150;BME280;32503;47.748;8.960;2023-06-01T02:14:09;96880.41;;;17.49;52.53
3150;BME280;32503;47.748;8.960;2023-06-01T02:16:36;96889.41;;;17.42;53.03
3150;BME280;32503;47.748;8.960;2023-06-01T02:19:04;96884.38;;;17.37;52.82
3150;BME280;32503;47.748;8.960;2023-06-01T02:21:32;96885.13;;;17.38;52.82
3150;BME280;32503;47.748;8.960;2023-06-01T02:23:59;96875.41;;;17.37;52.95
3150;BME280;32503;47.748;8.960;2023-06-01T02:26:30;96862.94;;;17.29;53.04
3150;BME280;32503;47.748;8.960;2023-06-01T02:28:57;96881.25;;;17.35;52.88
3150;BME280;32503;47.748;8.960;2023-06-01T02:31:24;96882.41;;;17.34;52.32
3150;BME280;32503;47.748;8.960;2023-06-01T02:33:51;96879.28;;;17.36;51.76
3150;BME280;32503;47.748;8.960;2023-06-01T02:36:20;96880.47;;;17.38;51.78
3150;BME280;32503;47.748;8.960;2023-06-01T02:38:47;96882.38;;;17.41;51.47
3150;BME280;32503;47.748;8.960;2023-06-01T02:41:14;96876.16;;;17.41;51.69
3150;BME280;32503;47.748;8.960;2023-06-01T02:43:41;96879.63;;;17.45;51.95
3150;BME280;32503;47.748;8.960;2023-06-01T02:46:08;96883.94;;;17.42;52.21
3150;BME280;32503;47.748;8.960;2023-06-01T02:48:35;96879.28;;;17.39;52.69
3150;BME280;32503;47.748;8.960;2023-06-01T02:51:02;96881.25;;;17.35;52.75
3150;BME280;32503;47.748;8.960;2023-06-01T02:53:30;96884.38;;;17.34;53.10
3150;BME280;32503;47.748;8.960;2023-06-01T02:55:57;96877.38;;;17.29;53.21
3150;BME280;32503;47.748;8.960;2023-06-01T02:58:24;96887.91;;;17.27;53.12
3150;BME280;32503;47.748;8.960;2023-06-01T03:00:55;96892.22;;;17.28;52.48
3150;BME280;32503;47.748;8.960;2023-06-01T03:03:23;96886.75;;;17.28;51.64
3150;BME280;32503;47.748;8.960;2023-06-01T03:05:50;96891.44;;;17.31;51.23
3150;BME280;32503;47.748;8.960;2023-06-01T03:08:18;96892.19;;;17.35;50.76
3150;BME280;32503;47.748;8.960;2023-06-01T03:10:46;96897.22;;;17.44;50.29
3150;BME280;32503;47.748;8.960;2023-06-01T03:13:14;96892.09;;;17.50;49.77
3150;BME280;32503;47.748;8.960;2023-06-01T03:15:41;96890.50;;;17.56;49.54
3150;BME280;32503;47.748;8.960;2023-06-01T03:18:08;96885.44;;;17.58;49.15
3150;BME280;32503;47.748;8.960;2023-06-01T03:20:35;96886.22;;;17.55;49.31
3150;BME280;32503;47.748;8.960;2023-06-01T03:23:02;96894.03;;;17.56;49.20
3150;BME280;32503;47.748;8.960;2023-06-01T03:25:29;96891.69;;;17.55;48.94
3150;BME280;32503;47.748;8.960;2023-06-01T03:27:57;96885.44;;;17.58;48.61
3150;BME280;32503;47.748;8.960;2023-06-01T03:30:24;96883.44;;;17.62;48.55
3150;BME280;32503;47.748;8.960;2023-06-01T03:32:51;96894.38;;;17.62;49.27
3150;BME280;32503;47.748;8.960;2023-06-01T03:35:18;96896.31;;;17.65;49.22
3150;BME280;32503;47.748;8.960;2023-06-01T03:37:45;96890.47;;;17.67;49.52
3150;BME280;32503;47.748;8.960;2023-06-01T03:40:13;96893.59;;;17.65;49.69
3150;BME280;32503;47.748;8.960;2023-06-01T03:42:42;96896.31;;;17.65;49.90
3150;BME280;32503;47.748;8.960;2023-06-01T03:45:11;96898.66;;;17.67;49.72
3150;BME280;32503;47.748;8.960;2023-06-01T03:47:38;96903.31;;;17.70;49.81
3150;BME280;32503;47.748;8.960;2023-06-01T03:50:08;96902.53;;;17.69;50.03
3150;BME280;32503;47.748;8.960;2023-06-01T03:52:36;96908.41;;;17.68;50.33
3150;BME280;32503;47.748;8.960;2023-06-01T03:55:05;96886.63;;;17.53;50.04
3150;BME280;32503;47.748;8.960;2023-06-01T03:57:34;96906.06;;;17.66;50.40
3150;BME280;32503;47.748;8.960;2023-06-01T04:00:01;96913.09;;;17.67;49.92
3150;BME280;32503;47.748;8.960;2023-06-01T04:02:47;96911.09;;;17.75;49.93
3150;BME280;32503;47.748;8.960;2023-06-01T04:05:16;96911.44;;;17.88;49.79
3150;BME280;32503;47.748;8.960;2023-06-01T04:07:44;96918.78;;;17.98;49.51
3150;BME280;32503;47.748;8.960;2023-06-01T04:10:12;96913.22;;;18.09;49.16
3150;BME280;32503;47.748;8.960;2023-06-01T04:12:40;96915.06;;;18.23;48.89
3150;BME280;32503;47.748;8.960;2023-06-01T04:15:10;96921.25;;;18.34;48.82
3150;BME280;32503;47.748;8.960;2023-06-01T04:17:37;96916.09;;;18.43;48.54
3150;BME280;32503;47.748;8.960;2023-06-01T04:20:09;96923.41;;;18.53;48.29
3150;BME280;32503;47.748;8.960;2023-06-01T04:22:37;96901.91;;;18.52;48.15
3150;BME280;32503;47.748;8.960;2023-06-01T04:25:07;96933.41;;;18.74;47.55
3150;BME280;32503;47.748;8.960;2023-06-01T04:27:35;96927.84;;;18.85;47.52
3150;BME280;32503;47.748;8.960;2023-06-01T04:30:05;96919.09;;;18.98;47.12
3150;BME280;32503;47.748;8.960;2023-06-01T04:32:34;96937.50;;;18.97;47.36
3150;BME280;32503;47.748;8.960;2023-06-01T04:35:06;96932.72;;;19.05;47.14
3150;BME280;32503;47.748;8.960;2023-06-01T04:37:34;96908.88;;;19.02;46.86
3150;BME280;32503;47.748;8.960;2023-06-01T04:40:02;96934.38;;;19.29;46.89
3150;BME280;32503;47.748;8.960;2023-06-01T04:42:33;96938.97;;;19.40;46.57
3150;BME280;32503;47.748;8.960;2023-06-01T04:45:00;96909.56;;;19.40;46.36
3150;BME280;32503;47.748;8.960;2023-06-01T04:47:30;96932.63;;;19.77;45.91
3150;BME280;32503;47.748;8.960;2023-06-01T04:49:57;96932.78;;;19.94;45.74
3150;BME280;32503;47.748;8.960;2023-06-01T04:52:25;96927.00;;;20.12;45.12
3150;BME280;32503;47.748;8.960;2023-06-01T04:54:53;96923.22;;;20.29;44.39
3150;BME280;32503;47.748;8.960;2023-06-01T04:57:20;96926.09;;;20.45;43.85
3150;BME280;32503;47.748;8.960;2023-06-01T04:59:49;96930.13;;;20.61;43.18
3150;BME280;32503;47.748;8.960;2023-06-01T05:02:17;96906.94;;;20.66;42.58
3150;BME280;32503;47.748;8.960;2023-06-01T05:04:44;96931.78;;;21.02;41.95
3150;BME280;32503;47.748;8.960;2023-06-01T05:07:11;96927.47;;;21.21;41.25
3150;BME280;32503;47.748;8.960;2023-06-01T05:09:39;96931.84;;;21.38;40.74
3150;BME280;32503;47.748;8.960;2023-06-01T05:12:07;96934.63;;;21.58;40.69
3150;BME280;32503;47.748;8.960;2023-06-01T05:14:34;96937.41;;;21.75;40.43
3150;BME280;32503;47.748;8.960;2023-06-01T05:17:02;96935.53;;;21.88;40.18
3150;BME280;32503;47.748;8.960;2023-06-01T05:19:29;96932.03;;;22.04;39.22
3150;BME280;32503;47.748;8.960;2023-06-01T05:21:56;96938.59;;;22.27;38.86
3150;BME280;32503;47.748;8.960;2023-06-01T05:24:23;96939.88;;;22.55;38.35
3150;BME280;32503;47.748;8.960;2023-06-01T05:26:51;96929.03;;;22.64;37.64
3150;BME280;32503;47.748;8.960;2023-06-01T05:29:18;96933.13;;;22.89;37.10
3150;BME280;32503;47.748;8.960;2023-06-01T05:31:46;96943.94;;;23.13;37.09
3150;BME280;32503;47.748;8.960;2023-06-01T05:34:13;96942.66;;;23.30;36.95
3150;BME280;32503;47.748;8.960;2023-06-01T05:36:40;96944.81;;;23.52;36.44
3150;BME280;32503;47.748;8.960;2023-06-01T05:39:08;96941.28;;;23.64;36.10
3150;BME280;32503;47.748;8.960;2023-06-01T05:41:36;96941.84;;;23.72;35.67
3150;BME280;32503;47.748;8.960;2023-06-01T05:44:05;96946.31;;;23.95;35.37
3150;BME280;32503;47.748;8.960;2023-06-01T05:46:32;96938.25;;;24.13;34.92
3150;BME280;32503;47.748;8.960;2023-06-01T05:48:59;96939.34;;;24.29;34.76
3150;BME280;32503;47.748;8.960;2023-06-01T05:51:26;96943.53;;;24.46;34.74
3150;BME280;32503;47.748;8.960;2023-06-01T05:53:53;96939.06;;;24.62;34.20
3150;BME280;32503;47.748;8.960;2023-06-01T05:56:20;96943.22;;;24.79;33.95
3150;BME280;32503;47.748;8.960;2023-06-01T05:58:47;96942.16;;;24.98;33.33
3150;BME280;32503;47.748;8.960;2023-06-01T06:01:20;96938.69;;;25.07;33.55
3150;BME280;32503;47.748;8.960;2023-06-01T06:03:48;96937.44;;;25.21;32.92
3150;BME280;32503;47.748;8.960;2023-06-01T06:06:16;96936.13;;;25.13;33.14
3150;BME280;32503;47.748;8.960;2023-06-01T06:08:43;96942.47;;;25.01;33.16
3150;BME280;32503;47.748;8.960;2023-06-01T06:11:11;96945.88;;;24.83;33.59
3150;BME280;32503;47.748;8.960;2023-06-01T06:13:38;96949.56;;;24.67;33.94
3150;BME280;32503;47.748;8.960;2023-06-01T06:16:05;96947.03;;;24.59;33.96
3150;BME280;32503;47.748;8.960;2023-06-01T06:18:34;96943.72;;;24.65;34.33
3150;BME280;32503;47.748;8.960;2023-06-01T06:21:01;96946.19;;;24.85;34.13
3150;BME280;32503;47.748;8.960;2023-06-01T06:23:28;96941.84;;;24.96;33.42
3150;BME280;32503;47.748;8.960;2023-06-01T06:25:55;96940.44;;;25.14;33.45
3150;BME280;32503;47.748;8.960;2023-06-01T06:28:22;96946.22;;;25.42;33.43
3150;BME280;32503;47.748;8.960;2023-06-01T06:30:49;96945.44;;;25.72;33.09
3150;BME280;32503;47.748;8.960;2023-06-01T06:33:16;96945.03;;;26.05;32.11
3150;BME280;32503;47.748;8.960;2023-06-01T06:35:45;96945.59;;;26.41;31.75
3150;BME280;32503;47.748;8.960;2023-06-01T06:38:12;96943.94;;;26.53;31.68
3150;BME280;32503;47.748;8.960;2023-06-01T06:40:39;96946.38;;;26.51;31.71
3150;BME280;32503;47.748;8.960;2023-06-01T06:43:06;96952.75;;;26.20;32.48
3150;BME280;32503;47.748;8.960;2023-06-01T06:45:33;96947.38;;;26.16;32.41
3150;BME280;32503;47.748;8.960;2023-06-01T06:48:00;96955.88;;;26.31;32.23
3150;BME280;32503;47.748;8.960;2023-06-01T06:50:27;96948.72;;;26.11;32.29
3150;BME280;32503;47.748;8.960;2023-06-01T06:52:56;96947.38;;;26.25;32.57
3150;BME280;32503;47.748;8.960;2023-06-01T06:55:23;96941.09;;;26.25;32.79
3150;BME280;32503;47.748;8.960;2023-06-01T06:57:50;96947.09;;;26.33;32.82
3150;BME280;32503;47.748;8.960;2023-06-01T07:00:19;96942.81;;;26.32;32.15
3150;BME280;32503;47.748;8.960;2023-06-01T07:02:47;96909.34;;;26.17;32.92
3150;BME280;32503;47.748;8.960;2023-06-01T07:05:14;96938.91;;;26.20;32.77
3150;BME280;32503;47.748;8.960;2023-06-01T07:07:41;96945.34;;;26.17;32.76
3150;BME280;32503;47.748;8.960;2023-06-01T07:10:10;96943.53;;;26.23;32.55
3150;BME280;32503;47.748;8.960;2023-06-01T07:12:37;96946.66;;;26.43;32.49
3150;BME280;32503;47.748;8.960;2023-06-01T07:15:05;96943.63;;;26.60;32.52
3150;BME280;32503;47.748;8.960;2023-06-01T07:17:33;96951.53;;;26.61;32.34
3150;BME280;32503;47.748;8.960;2023-06-01T07:20:03;96949.09;;;25.91;33.21
3150;BME280;32503;47.748;8.960;2023-06-01T07:22:32;96954.31;;;25.89;32.98
3150;BME280;32503;47.748;8.960;2023-06-01T07:24:59;96957.09;;;25.89;33.94
3150;BME280;32503;47.748;8.960;2023-06-01T07:27:27;96946.97;;;25.96;34.12
3150;BME280;32503;47.748;8.960;2023-06-01T07:29:54;96951.47;;;25.49;34.46
3150;BME280;32503;47.748;8.960;2023-06-01T07:32:22;96951.09;;;25.38;34.51
3150;BME280;32503;47.748;8.960;2023-06-01T07:34:49;96942.72;;;25.28;34.13
3150;BME280;32503;47.748;8.960;2023-06-01T07:37:16;96954.69;;;25.47;34.41
3150;BME280;32503;47.748;8.960;2023-06-01T07:39:47;96946.22;;;25.07;34.73
3150;BME280;32503;47.748;8.960;2023-06-01T07:42:15;96950.56;;;25.08;35.00
3150;BME280;32503;47.748;8.960;2023-06-01T07:44:44;96941.88;;;25.41;34.98
3150;BME280;32503;47.748;8.960;2023-06-01T07:47:11;96950.72;;;25.80;34.96
3150;BME280;32503;47.748;8.960;2023-06-01T07:49:39;96955.56;;;26.29;33.96
3150;BME280;32503;47.748;8.960;2023-06-01T07:52:06;96948.28;;;26.22;33.26
3150;BME280;32503;47.748;8.960;2023-06-01T07:54:34;96939.25;;;26.31;33.29
3150;BME280;32503;47.748;8.960;2023-06-01T07:57:02;96944.63;;;26.35;32.88
3150;BME280;32503;47.748;8.960;2023-06-01T07:59:30;96935.75;;;25.99;33.55
3150;BME280;32503;47.748;8.960;2023-06-01T08:01:59;96935.16;;;25.07;35.28
3150;BME280;32503;47.748;8.960;2023-06-01T08:04:26;96938.31;;;24.96;35.54
3150;BME280;32503;47.748;8.960;2023-06-01T08:06:59;96944.44;;;25.13;36.00
3150;BME280;32503;47.748;8.960;2023-06-01T08:09:29;96943.41;;;24.97;36.04
3150;BME280;32503;47.748;8.960;2023-06-01T08:11:57;96943.22;;;25.58;35.23
3150;BME280;32503;47.748;8.960;2023-06-01T08:14:24;96937.50;;;25.30;35.77
3150;BME280;32503;47.748;8.960;2023-06-01T08:16:51;96940.16;;;25.56;35.21
3150;BME280;32503;47.748;8.960;2023-06-01T08:19:19;96940.09;;;25.47;35.00
3150;BME280;32503;47.748;8.960;2023-06-01T08:21:46;96934.38;;;25.95;34.90
3150;BME280;32503;47.748;8.960;2023-06-01T08:24:13;96939.06;;;25.85;34.25
3150;BME280;32503;47.748;8.960;2023-06-01T08:26:42;96932.91;;;25.90;35.27
3150;BME280;32503;47.748;8.960;2023-06-01T08:29:09;96937.63;;;25.27;35.16
3150;BME280;32503;47.748;8.960;2023-06-01T08:31:37;96933.09;;;24.98;35.74
3150;BME280;32503;47.748;8.960;2023-06-01T08:34:04;96935.94;;;24.12;37.59
3150;BME280;32503;47.748;8.960;2023-06-01T08:36:32;96941.91;;;23.97;37.99
3150;BME280;32503;47.748;8.960;2023-06-01T08:38:59;96951.66;;;23.60;38.79
3150;BME280;32503;47.748;8.960;2023-06-01T08:41:35;96946.97;;;23.86;38.56
3150;BME280;32503;47.748;8.960;2023-06-01T08:44:04;96943.75;;;24.39;37.51
3150;BME280;32503;47.748;8.960;2023-06-01T08:46:32;96947.97;;;24.31;37.96
3150;BME280;32503;47.748;8.960;2023-06-01T08:49:00;96934.66;;;24.51;37.36
3150;BME280;32503;47.748;8.960;2023-06-01T08:51:28;96940.00;;;24.58;37.54
3150;BME280;32503;47.748;8.960;2023-06-01T08:54:00;96952.16;;;24.22;37.77
3150;BME280;32503;47.748;8.960;2023-06-01T08:56:30;96935.94;;;23.99;38.65
3150;BME280;32503;47.748;8.960;2023-06-01T08:58:57;96936.66;;;24.51;38.17
3150;BME280;32503;47.748;8.960;2023-06-01T09:01:26;96935.94;;;24.85;38.12
3150;BME280;32503;47.748;8.960;2023-06-01T09:03:54;96929.13;;;24.99;37.62
3150;BME280;32503;47.748;8.960;2023-06-01T09:06:21;96933.97;;;25.52;36.64
3150;BME280;32503;47.748;8.960;2023-06-01T09:08:48;96932.06;;;25.71;36.29
3150;BME280;32503;47.748;8.960;2023-06-01T09:11:16;96935.41;;;25.66;36.31
3150;BME280;32503;47.748;8.960;2023-06-01T09:13:43;96931.19;;;25.83;35.83
3150;BME280;32503;47.748;8.960;2023-06-01T09:16:10;96936.22;;;25.44;36.28
3150;BME280;32503;47.748;8.960;2023-06-01T09:18:51;96931.44;;;25.45;36.85
3150;BME280;32503;47.748;8.960;2023-06-01T09:21:19;96929.38;;;25.58;36.27
3150;BME280;32503;47.748;8.960;2023-06-01T09:23:46;96926.75;;;25.86;36.09
3150;BME280;32503;47.748;8.960;2023-06-01T09:26:17;96923.72;;;25.93;36.27
3150;BME280;32503;47.748;8.960;2023-06-01T09:29:02;96923.47;;;26.09;35.79
3150;BME280;32503;47.748;8.960;2023-06-01T09:31:39;96920.44;;;25.85;36.31
3150;BME280;32503;47.748;8.960;2023-06-01T09:34:07;96913.72;;;25.96;35.98
3150;BME280;32503;47.748;8.960;2023-06-01T09:36:35;96922.94;;;25.61;36.23
3150;BME280;32503;47.748;8.960;2023-06-01T09:39:05;96918.81;;;25.22;36.79
3150;BME280;32503;47.748;8.960;2023-06-01T09:41:51;96914.19;;;24.96;37.90
3150;BME280;32503;47.748;8.960;2023-06-01T09:44:26;96890.31;;;24.68;38.50
3150;BME280;32503;47.748;8.960;2023-06-01T09:46:55;96909.97;;;25.05;38.08
3150;BME280;32503;47.748;8.960;2023-06-01T09:49:25;96892.84;;;24.97;37.75
3150;BME280;32503;47.748;8.960;2023-06-01T09:52:07;96911.44;;;25.41;37.73
3150;BME280;32503;47.748;8.960;2023-06-01T09:54:40;96896.97;;;25.14;37.53
3150;BME280;32503;47.748;8.960;2023-06-01T09:57:09;96901.22;;;25.28;38.03
3150;BME280;32503;47.748;8.960;2023-06-01T09:59:41;96903.03;;;25.76;37.27
3150;BME280;32503;47.748;8.960;2023-06-01T10:02:13;96901.16;;;25.72;37.58
3150;BME280;32503;47.748;8.960;2023-06-01T10:04:44;96897.03;;;25.77;36.85
3150;BME280;32503;47.748;8.960;2023-06-01T10:07:13;96897.47;;;25.44;37.57
3150;BME280;32503;47.748;8.960;2023-06-01T10:09:43;96899.13;;;25.64;37.33
3150;BME280;32503;47.748;8.960;2023-06-01T10:12:12;96893.63;;;25.42;37.82
3150;BME280;32503;47.748;8.960;2023-06-01T10:14:40;96896.44;;;25.07;38.28
3150;BME280;32503;47.748;8.960;2023-06-01T10:17:08;96890.97;;;25.16;38.37
3150;BME280;32503;47.748;8.960;2023-06-01T10:19:36;96888.34;;;25.12;38.36
3150;BME280;32503;47.748;8.960;2023-06-01T10:22:05;96890.41;;;25.43;38.11
3150;BME280;32503;47.748;8.960;2023-06-01T10:24:33;96888.28;;;25.79;37.08
3150;BME280;32503;47.748;8.960;2023-06-01T10:27:06;96879.28;;;25.65;37.13
3150;BME280;32503;47.748;8.960;2023-06-01T10:29:38;96878.97;;;25.95;36.95
3150;BME280;32503;47.748;8.960;2023-06-01T10:32:40;96873.69;;;26.28;37.13
3150;BME280;32503;47.748;8.960;2023-06-01T10:35:08;96871.72;;;26.65;36.47
3150;BME280;32503;47.748;8.960;2023-06-01T10:37:36;96879.25;;;26.93;36.69
3150;BME280;32503;47.748;8.960;2023-06-01T10:40:20;96880.94;;;27.18;35.24
3150;BME280;32503;47.748;8.960;2023-06-01T10:42:47;96877.84;;;27.25;35.61
3150;BME280;32503;47.748;8.960;2023-06-01T10:45:38;96871.22;;;27.22;35.01
3150;BME280;32503;47.748;8.960;2023-06-01T10:48:07;96870.88;;;27.39;35.16
3150;BME280;32503;47.748;8.960;2023-06-01T10:50:36;96873.28;;;27.65;35.14
3150;BME280;32503;47.748;8.960;2023-06-01T10:53:31;96869.69;;;27.21;35.16
3150;BME280;32503;47.748;8.960;2023-06-01T10:56:21;96869.53;;;27.16;35.70
3150;BME280;32503;47.748;8.960;2023-06-01T10:59:11;96872.13;;;27.19;35.55
3150;BME280;32503;47.748;8.960;2023-06-01T11:01:40;96867.22;;;27.23;35.35
3150;BME280;32503;47.748;8.960;2023-06-01T11:04:08;96852.75;;;27.29;35.69
3150;BME280;32503;47.748;8.960;2023-06-01T11:06:38;96855.94;;;27.79;35.25
3150;BME280;32503;47.748;8.960;2023-06-01T11:09:07;96856.50;;;28.26;34.42
3150;BME280;32503;47.748;8.960;2023-06-01T11:12:00;96868.31;;;27.69;34.58
3150;BME280;32503;47.748;8.960;2023-06-01T11:14:29;96858.47;;;27.68;34.75
3150;BME280;32503;47.748;8.960;2023-06-01T11:17:29;96849.94;;;28.14;34.63
3150;BME280;32503;47.748;8.960;2023-06-01T11:20:00;96842.78;;;28.22;33.52
3150;BME280;32503;47.748;8.960;2023-06-01T11:22:35;96844.97;;;27.94;34.42
3150;BME280;32503;47.748;8.960;2023-06-01T11:25:05;96857.72;;;28.01;34.88
3150;BME280;32503;47.748;8.960;2023-06-01T11:27:34;96842.28;;;26.96;35.56
3150;BME280;32503;47.748;8.960;2023-06-01T11:30:02;96846.59;;;27.06;35.99
3150;BME280;32503;47.748;8.960;2023-06-01T11:32:32;96838.63;;;26.90;36.68
3150;BME280;32503;47.748;8.960;2023-06-01T11:35:16;96837.66;;;27.11;36.35
3150;BME280;32503;47.748;8.960;2023-06-01T11:37:44;96822.50;;;27.31;36.11
3150;BME280;32503;47.748;8.960;2023-06-01T11:40:14;96830.84;;;27.21;35.70
3150;BME280;32503;47.748;8.960;2023-06-01T11:42:41;96825.69;;;27.48;36.00
3150;BME280;32503;47.748;8.960;2023-06-01T11:45:15;96815.28;;;27.15;35.42
3150;BME280;32503;47.748;8.960;2023-06-01T11:47:44;96817.03;;;26.75;35.86
3150;BME280;32503;47.748;8.960;2023-06-01T11:50:20;96812.91;;;26.61;36.99
3150;BME280;32503;47.748;8.960;2023-06-01T11:52:53;96819.81;;;26.47;37.06
3150;BME280;32503;47.748;8.960;2023-06-01T11:55:21;96810.56;;;26.32;37.16
3150;BME280;32503;47.748;8.960;2023-06-01T11:57:48;96808.69;;;26.38;37.37
3150;BME280;32503;47.748;8.960;2023-06-01T12:00:16;96807.34;;;26.24;37.37
3150;BME280;32503;47.748;8.960;2023-06-01T12:02:46;96801.63;;;26.83;37.02
3150;BME280;32503;47.748;8.960;2023-06-01T12:05:14;96802.13;;;27.43;36.33
3150;BME280;32503;47.748;8.960;2023-06-01T12:07:45;96793.81;;;28.01;35.29
3150;BME280;32503;47.748;8.960;2023-06-01T12:10:13;96796.22;;;28.08;34.52
3150;BME280;32503;47.748;8.960;2023-06-01T12:12:41;96785.47;;;28.01;34.92
3150;BME280;32503;47.748;8.960;2023-06-01T12:15:10;96785.66;;;27.97;33.40
3150;BME280;32503;47.748;8.960;2023-06-01T12:17:49;96782.50;;;28.28;33.61
3150;BME280;32503;47.748;8.960;2023-06-01T12:20:28;96780.81;;;28.85;33.43
3150;BME280;32503;47.748;8.960;2023-06-01T12:22:55;96780.31;;;29.01;32.60
3150;BME280;32503;47.748;8.960;2023-06-01T12:25:24;96773.03;;;29.34;31.98
3150;BME280;32503;47.748;8.960;2023-06-01T12:28:02;96770.34;;;29.75;31.95
3150;BME280;32503;47.748;8.960;2023-06-01T12:30:30;96773.72;;;29.99;31.91
3150;BME280;32503;47.748;8.960;2023-06-01T12:32:58;96761.69;;;30.29;30.50
3150;BME280;32503;47.748;8.960;2023-06-01T12:35:26;96767.66;;;30.42;30.21
3150;BME280;32503;47.748;8.960;2023-06-01T12:38:04;96759.88;;;30.46;29.01
3150;BME280;32503;47.748;8.960;2023-06-01T12:40:32;96768.13;;;30.61;29.03
3150;BME280;32503;47.748;8.960;2023-06-01T12:43:00;96757.56;;;30.71;28.36
3150;BME280;32503;47.748;8.960;2023-06-01T12:45:34;96754.63;;;30.80;28.21
3150;BME280;32503;47.748;8.960;2023-06-01T12:48:05;96747.84;;;30.60;29.35
3150;BME280;32503;47.748;8.960;2023-06-01T12:50:32;96753.84;;;30.53;30.21
3150;BME280;32503;47.748;8.960;2023-06-01T12:52:59;96741.47;;;30.60;29.63
3150;BME280;32503;47.748;8.960;2023-06-01T12:55:28;96746.53;;;30.56;29.36
3150;BME280;32503;47.748;8.960;2023-06-01T12:57:55;96754.84;;;30.50;29.31
3150;BME280;32503;47.748;8.960;2023-06-01T13:00:23;96744.53;;;30.36;29.03
3150;BME280;32503;47.748;8.960;2023-06-01T13:02:50;96737.63;;;30.31;29.02
3150;BME280;32503;47.748;8.960;2023-06-01T13:05:19;96740.75;;;30.39;28.87
3150;BME280;32503;47.748;8.960;2023-06-01T13:07:46;96738.91;;;30.56;28.83
3150;BME280;32503;47.748;8.960;2023-06-01T13:10:13;96732.97;;;30.69;28.33
3150;BME280;32503;47.748;8.960;2023-06-01T13:12:41;96741.25;;;30.63;28.13
3150;BME280;32503;47.748;8.960;2023-06-01T13:15:09;96735.09;;;30.54;28.76
3150;BME280;32503;47.748;8.960;2023-06-01T13:17:37;96723.88;;;30.48;28.59
3150;BME280;32503;47.748;8.960;2023-06-01T13:20:06;96723.19;;;30.53;28.82
3150;BME280;32503;47.748;8.960;2023-06-01T13:22:37;96719.94;;;30.60;29.03